sensor_id;sensor_type;location;lat;lon;timestamp;temperature;humidity
32612;DHT22;19030;49.478;8.986;2023-04-03T00:01:14;1.90;99.90
32612;DHT22;19030;49.478;8.986;2023-04-03T00:03:16;1.90;99.90
32612;DHT22;19030;49.478;8.986;2023-04-03T00:05:17;1.80;99.90
32612;DHT22;19030;49.478;8.986;2023-04-03T00:07:18;1.80;99.90
32612;DHT22;19030;49.478;8.986;2023-04-03T00:09:18;1.80;99.90
32612;DHT22;19030;49.478;8.986;2023-04-03T00:11:19;1.70;99.90
32612;DHT22;19030;49.478;8.986;2023-04-03T00:13:21;1.80;99.90
32612;DHT22;19030;49.478;8.986;2023-04-03T00:15:21;1.70;99.90
32612;DHT22;19030;49.478;8.986;2023-04-03T00:17:22;1.70;99.90
32612;DHT22;19030;49.478;8.986;2023-04-03T00:19:22;1.60;99.90
32612;DHT22;19030;49.478;8.986;2023-04-03T00:21:23;1.70;99.90
32612;DHT22;19030;49.478;8.986;2023-04-03T00:23:23;1.60;99.90
32612;DHT22;19030;49.478;8.986;2023-04-03T00:25:24;1.60;99.90
32612;DHT22;19030;49.478;8.986;2023-04-03T00:27:25;1.50;99.90
32612;DHT22;19030;49.478;8.986;2023-04-03T00:29:26;1.50;99.90
32612;DHT22;19030;49.478;8.986;2023-04-03T00:31:26;1.40;99.90
32612;DHT22;19030;49.478;8.986;2023-04-03T00:33:27;1.40;99.90
32612;DHT22;19030;49.478;8.986;2023-04-03T00:35:28;1.40;99.90
32612;DHT22;19030;49.478;8.986;2023-04-03T00:37:28;1.40;99.90
32612;DHT22;19030;49.478;8.986;2023-04-03T00:39:29;1.30;99.90
32612;DHT22;19030;49.478;8.986;2023-04-03T00:41:30;1.30;99.90
32612;DHT22;19030;49.478;8.986;2023-04-03T00:43:30;1.30;99.90
32612;DHT22;19030;49.478;8.986;2023-04-03T00:45:39;1.30;99.90
32612;DHT22;19030;49.478;8.986;2023-04-03T00:47:41;1.20;99.90
32612;DHT22;19030;49.478;8.986;2023-04-03T00:49:42;1.20;99.90
32612;DHT22;19030;49.478;8.986;2023-04-03T00:51:44;1.10;99.90
32612;DHT22;19030;49.478;8.986;2023-04-03T00:53:54;1.10;99.90
32612;DHT22;19030;49.478;8.986;2023-04-03T00:55:56;1.20;99.90
32612;DHT22;19030;49.478;8.986;2023-04-03T00:57:57;1.20;99.90
32612;DHT22;19030;49.478;8.986;2023-04-03T01:00:03;1.10;99.90
32612;DHT22;19030;49.478;8.986;2023-04-03T01:02:05;1.10;99.90
32612;DHT22;19030;49.478;8.986;2023-04-03T01:04:29;1.10;99.90
32612;DHT22;19030;49.478;8.986;2023-04-03T01:06:34;1.00;99.90
32612;DHT22;19030;49.478;8.986;2023-04-03T01:08:42;1.00;99.90
32612;DHT22;19030;49.478;8.986;2023-04-03T01:10:44;1.00;99.90
32612;DHT22;19030;49.478;8.986;2023-04-03T01:12:46;1.00;99.90
32612;DHT22;19030;49.478;8.986;2023-04-03T01:14:53;1.00;99.90
32612;DHT22;19030;49.478;8.986;2023-04-03T01:16:54;1.00;99.90
32612;DHT22;19030;49.478;8.986;2023-04-03T01:18:55;0.90;99.90
32612;DHT22;19030;49.478;8.986;2023-04-03T01:25:10;0.90;99.90
32612;DHT22;19030;49.478;8.986;2023-04-03T01:27:11;0.90;99.90
32612;DHT22;19030;49.478;8.986;2023-04-03T01:29:12;0.90;99.90
32612;DHT22;19030;49.478;8.986;2023-04-03T01:31:25;0.80;99.90
32612;DHT22;19030;49.478;8.986;2023-04-03T01:33:28;0.80;99.90
32612;DHT22;19030;49.478;8.986;2023-04-03T01:35:29;0.80;99.90
32612;DHT22;19030;49.478;8.986;2023-04-03T01:37:29;0.80;99.90
32612;DHT22;19030;49.478;8.986;2023-04-03T01:39:30;0.90;99.90
32612;DHT22;19030;49.478;8.986;2023-04-03T01:41:31;0.90;99.90
32612;DHT22;19030;49.478;8.986;2023-04-03T01:43:40;0.90;99.90
32612;DHT22;19030;49.478;8.986;2023-04-03T01:45:40;0.90;99.90
32612;DHT22;19030;49.478;8.986;2023-04-03T01:47:41;0.90;99.90
32612;DHT22;19030;49.478;8.986;2023-04-03T01:49:41;0.80;99.90
32612;DHT22;19030;49.478;8.986;2023-04-03T01:51:43;0.80;99.90
32612;DHT22;19030;49.478;8.986;2023-04-03T01:53:43;0.80;99.90
32612;DHT22;19030;49.478;8.986;2023-04-03T01:55:44;0.80;99.90
32612;DHT22;19030;49.478;8.986;2023-04-03T01:57:45;0.70;99.90
32612;DHT22;19030;49.478;8.986;2023-04-03T01:59:45;0.80;99.90
32612;DHT22;19030;49.478;8.986;2023-04-03T02:01:46;0.70;99.90
32612;DHT22;19030;49.478;8.986;2023-04-03T02:03:47;0.60;99.90
32612;DHT22;19030;49.478;8.986;2023-04-03T02:05:49;0.60;99.90
32612;DHT22;19030;49.478;8.986;2023-04-03T02:07:50;0.60;99.90
32612;DHT22;19030;49.478;8.986;2023-04-03T02:09:51;0.60;99.90
32612;DHT22;19030;49.478;8.986;2023-04-03T02:11:51;0.50;99.90
32612;DHT22;19030;49.478;8.986;2023-04-03T02:13:52;0.50;99.90
32612;DHT22;19030;49.478;8.986;2023-04-03T02:15:52;0.40;99.90
32612;DHT22;19030;49.478;8.986;2023-04-03T02:17:53;0.40;99.90
32612;DHT22;19030;49.478;8.986;2023-04-03T02:19:54;0.40;99.90
32612;DHT22;19030;49.478;8.986;2023-04-03T02:21:55;0.40;99.90
32612;DHT22;19030;49.478;8.986;2023-04-03T02:23:55;0.40;99.90
32612;DHT22;19030;49.478;8.986;2023-04-03T02:26:09;0.30;99.90
32612;DHT22;19030;49.478;8.986;2023-04-03T02:28:10;0.30;99.90
32612;DHT22;19030;49.478;8.986;2023-04-03T02:30:11;0.20;99.90
32612;DHT22;19030;49.478;8.986;2023-04-03T02:32:11;0.20;99.90
32612;DHT22;19030;49.478;8.986;2023-04-03T02:34:13;0.20;99.90
32612;DHT22;19030;49.478;8.986;2023-04-03T02:36:14;0.20;99.90
32612;DHT22;19030;49.478;8.986;2023-04-03T02:38:18;0.20;99.90
32612;DHT22;19030;49.478;8.986;2023-04-03T02:40:18;0.20;99.90
32612;DHT22;19030;49.478;8.986;2023-04-03T02:42:19;0.10;99.90
32612;DHT22;19030;49.478;8.986;2023-04-03T02:44:20;0.10;99.90
32612;DHT22;19030;49.478;8.986;2023-04-03T02:46:20;0.10;99.90
32612;DHT22;19030;49.478;8.986;2023-04-03T02:48:22;0.00;99.90
32612;DHT22;19030;49.478;8.986;2023-04-03T02:50:22;0.00;99.90
32612;DHT22;19030;49.478;8.986;2023-04-03T02:52:23;0.00;99.90
32612;DHT22;19030;49.478;8.986;2023-04-03T02:54:25;-0.10;99.90
32612;DHT22;19030;49.478;8.986;2023-04-03T02:56:29;-0.10;99.90
32612;DHT22;19030;49.478;8.986;2023-04-03T02:58:30;-0.10;99.90
32612;DHT22;19030;49.478;8.986;2023-04-03T03:00:32;-0.10;99.90
32612;DHT22;19030;49.478;8.986;2023-04-03T03:02:33;0.00;99.90
32612;DHT22;19030;49.478;8.986;2023-04-03T03:04:34;-0.10;99.90
32612;DHT22;19030;49.478;8.986;2023-04-03T03:06:35;-0.10;99.90
32612;DHT22;19030;49.478;8.986;2023-04-03T03:08:36;-0.20;99.90
32612;DHT22;19030;49.478;8.986;2023-04-03T03:10:36;-0.20;99.90
32612;DHT22;19030;49.478;8.986;2023-04-03T03:12:37;-0.20;99.90
32612;DHT22;19030;49.478;8.986;2023-04-03T03:14:37;-0.20;99.90
32612;DHT22;19030;49.478;8.986;2023-04-03T03:16:38;-0.20;99.90
32612;DHT22;19030;49.478;8.986;2023-04-03T03:18:39;-0.20;99.90
32612;DHT22;19030;49.478;8.986;2023-04-03T03:20:39;-0.20;99.90
32612;DHT22;19030;49.478;8.986;2023-04-03T03:22:40;-0.30;99.90
32612;DHT22;19030;49.478;8.986;2023-04-03T03:24:40;-0.20;99.90
32612;DHT22;19030;49.478;8.986;2023-04-03T03:26:41;-0.20;99.90
32612;DHT22;19030;49.478;8.986;2023-04-03T03:28:42;-0.20;99.90
32612;DHT22;19030;49.478;8.986;2023-04-03T03:30:43;-0.30;99.90
32612;DHT22;19030;49.478;8.986;2023-04-03T03:32:44;-0.30;99.90
32612;DHT22;19030;49.478;8.986;2023-04-03T03:34:45;-0.30;99.90
32612;DHT22;19030;49.478;8.986;2023-04-03T03:36:46;-0.30;99.90
32612;DHT22;19030;49.478;8.986;2023-04-03T03:38:46;-0.30;99.90
32612;DHT22;19030;49.478;8.986;2023-04-03T03:40:48;-0.40;99.90
32612;DHT22;19030;49.478;8.986;2023-04-03T03:42:50;-0.40;99.90
32612;DHT22;19030;49.478;8.986;2023-04-03T03:44:51;-0.30;99.90
32612;DHT22;19030;49.478;8.986;2023-04-03T03:46:53;-0.30;99.90
32612;DHT22;19030;49.478;8.986;2023-04-03T03:48:54;-0.30;99.90
32612;DHT22;19030;49.478;8.986;2023-04-03T03:50:55;-0.30;99.90
32612;DHT22;19030;49.478;8.986;2023-04-03T03:52:59;-0.40;99.90
32612;DHT22;19030;49.478;8.986;2023-04-03T03:55:00;-0.40;99.90
32612;DHT22;19030;49.478;8.986;2023-04-03T03:57:01;-0.40;99.90
32612;DHT22;19030;49.478;8.986;2023-04-03T03:59:04;-0.40;99.90
32612;DHT22;19030;49.478;8.986;2023-04-03T04:01:06;-0.50;99.90
32612;DHT22;19030;49.478;8.986;2023-04-03T04:03:13;-0.40;99.90
32612;DHT22;19030;49.478;8.986;2023-04-03T04:05:14;-0.40;99.90
32612;DHT22;19030;49.478;8.986;2023-04-03T04:07:15;-0.40;99.90
32612;DHT22;19030;49.478;8.986;2023-04-03T04:09:16;-0.40;99.90
32612;DHT22;19030;49.478;8.986;2023-04-03T04:11:17;-0.40;99.90
32612;DHT22;19030;49.478;8.986;2023-04-03T04:13:19;-0.40;99.90
32612;DHT22;19030;49.478;8.986;2023-04-03T04:15:20;-0.30;99.90
32612;DHT22;19030;49.478;8.986;2023-04-03T04:17:22;-0.30;99.90
32612;DHT22;19030;49.478;8.986;2023-04-03T04:19:23;-0.30;99.90
32612;DHT22;19030;49.478;8.986;2023-04-03T04:21:24;-0.30;99.90
32612;DHT22;19030;49.478;8.986;2023-04-03T04:23:26;-0.30;99.90
32612;DHT22;19030;49.478;8.986;2023-04-03T04:25:27;-0.30;99.90
32612;DHT22;19030;49.478;8.986;2023-04-03T04:27:28;-0.30;99.90
32612;DHT22;19030;49.478;8.986;2023-04-03T04:29:29;-0.30;99.90
32612;DHT22;19030;49.478;8.986;2023-04-03T04:31:30;-0.40;99.90
32612;DHT22;19030;49.478;8.986;2023-04-03T04:33:30;-0.40;99.90
32612;DHT22;19030;49.478;8.986;2023-04-03T04:35:34;-0.40;99.90
32612;DHT22;19030;49.478;8.986;2023-04-03T04:37:35;-0.40;99.90
32612;DHT22;19030;49.478;8.986;2023-04-03T04:39:36;-0.40;99.90
32612;DHT22;19030;49.478;8.986;2023-04-03T04:41:37;-0.50;99.90
32612;DHT22;19030;49.478;8.986;2023-04-03T04:43:39;-0.50;99.90
32612;DHT22;19030;49.478;8.986;2023-04-03T04:45:41;-0.50;99.90
32612;DHT22;19030;49.478;8.986;2023-04-03T04:47:42;-0.40;99.90
32612;DHT22;19030;49.478;8.986;2023-04-03T04:49:44;-0.50;99.90
32612;DHT22;19030;49.478;8.986;2023-04-03T04:55:31;-0.50;99.90
32612;DHT22;19030;49.478;8.986;2023-04-03T04:57:31;-0.40;99.90
32612;DHT22;19030;49.478;8.986;2023-04-03T04:59:33;-0.40;99.90
32612;DHT22;19030;49.478;8.986;2023-04-03T05:01:38;-0.40;99.90
32612;DHT22;19030;49.478;8.986;2023-04-03T05:03:45;-0.40;99.90
32612;DHT22;19030;49.478;8.986;2023-04-03T05:05:48;-0.40;99.90
32612;DHT22;19030;49.478;8.986;2023-04-03T05:07:48;-0.30;99.90
32612;DHT22;19030;49.478;8.986;2023-04-03T05:09:49;-0.30;99.90
32612;DHT22;19030;49.478;8.986;2023-04-03T05:11:51;-0.30;99.90
32612;DHT22;19030;49.478;8.986;2023-04-03T05:13:55;-0.30;99.90
32612;DHT22;19030;49.478;8.986;2023-04-03T05:15:57;-0.30;99.90
32612;DHT22;19030;49.478;8.986;2023-04-03T05:17:58;-0.30;99.90
32612;DHT22;19030;49.478;8.986;2023-04-03T05:19:59;-0.30;99.90
32612;DHT22;19030;49.478;8.986;2023-04-03T05:22:02;-0.30;99.90
32612;DHT22;19030;49.478;8.986;2023-04-03T05:24:03;-0.30;99.90
32612;DHT22;19030;49.478;8.986;2023-04-03T05:26:07;-0.30;99.90
32612;DHT22;19030;49.478;8.986;2023-04-03T05:28:08;-0.30;99.90
32612;DHT22;19030;49.478;8.986;2023-04-03T05:30:09;-0.20;99.90
32612;DHT22;19030;49.478;8.986;2023-04-03T05:32:13;-0.20;99.90
32612;DHT22;19030;49.478;8.986;2023-04-03T05:34:13;-0.20;99.90
32612;DHT22;19030;49.478;8.986;2023-04-03T05:36:15;-0.20;99.90
32612;DHT22;19030;49.478;8.986;2023-04-03T05:38:20;-0.20;99.90
32612;DHT22;19030;49.478;8.986;2023-04-03T05:40:21;-0.20;99.90
32612;DHT22;19030;49.478;8.986;2023-04-03T05:42:25;-0.10;99.90
32612;DHT22;19030;49.478;8.986;2023-04-03T05:44:26;-0.10;99.90
32612;DHT22;19030;49.478;8.986;2023-04-03T05:46:28;-0.10;99.90
32612;DHT22;19030;49.478;8.986;2023-04-03T05:48:31;0.00;99.90
32612;DHT22;19030;49.478;8.986;2023-04-03T05:50:32;0.10;99.90
32612;DHT22;19030;49.478;8.986;2023-04-03T05:52:36;0.20;99.90
32612;DHT22;19030;49.478;8.986;2023-04-03T05:54:37;0.20;99.90
32612;DHT22;19030;49.478;8.986;2023-04-03T05:56:44;0.40;99.90
32612;DHT22;19030;49.478;8.986;2023-04-03T05:58:45;0.50;99.90
32612;DHT22;19030;49.478;8.986;2023-04-03T06:00:46;0.60;99.90
32612;DHT22;19030;49.478;8.986;2023-04-03T06:02:47;0.70;99.90
32612;DHT22;19030;49.478;8.986;2023-04-03T06:04:53;0.90;99.90
32612;DHT22;19030;49.478;8.986;2023-04-03T06:06:55;1.10;99.90
32612;DHT22;19030;49.478;8.986;2023-04-03T06:08:59;1.30;99.90
32612;DHT22;19030;49.478;8.986;2023-04-03T06:11:00;1.90;99.90
32612;DHT22;19030;49.478;8.986;2023-04-03T06:13:02;2.30;99.90
32612;DHT22;19030;49.478;8.986;2023-04-03T06:15:03;2.50;99.90
32612;DHT22;19030;49.478;8.986;2023-04-03T06:17:04;2.60;99.90
32612;DHT22;19030;49.478;8.986;2023-04-03T06:19:06;2.80;99.90
32612;DHT22;19030;49.478;8.986;2023-04-03T06:21:07;2.90;99.90
32612;DHT22;19030;49.478;8.986;2023-04-03T06:23:08;3.10;99.90
32612;DHT22;19030;49.478;8.986;2023-04-03T06:25:09;3.30;99.90
32612;DHT22;19030;49.478;8.986;2023-04-03T06:27:11;3.70;99.90
32612;DHT22;19030;49.478;8.986;2023-04-03T06:29:11;4.00;99.90
32612;DHT22;19030;49.478;8.986;2023-04-03T06:31:12;4.00;99.90
32612;DHT22;19030;49.478;8.986;2023-04-03T06:33:12;3.90;99.90
32612;DHT22;19030;49.478;8.986;2023-04-03T06:35:13;3.90;99.90
32612;DHT22;19030;49.478;8.986;2023-04-03T06:37:19;4.20;99.90
32612;DHT22;19030;49.478;8.986;2023-04-03T06:39:21;4.60;99.90
32612;DHT22;19030;49.478;8.986;2023-04-03T06:41:25;4.80;99.90
32612;DHT22;19030;49.478;8.986;2023-04-03T06:43:26;4.80;99.90
32612;DHT22;19030;49.478;8.986;2023-04-03T06:45:27;5.00;99.90
32612;DHT22;19030;49.478;8.986;2023-04-03T06:47:28;5.30;99.90
32612;DHT22;19030;49.478;8.986;2023-04-03T06:49:28;5.50;99.90
32612;DHT22;19030;49.478;8.986;2023-04-03T06:51:30;5.40;99.90
32612;DHT22;19030;49.478;8.986;2023-04-03T06:53:30;5.10;99.90
32612;DHT22;19030;49.478;8.986;2023-04-03T06:55:31;5.00;99.90
32612;DHT22;19030;49.478;8.986;2023-04-03T06:57:32;4.80;99.90
32612;DHT22;19030;49.478;8.986;2023-04-03T06:59:33;4.80;99.90
32612;DHT22;19030;49.478;8.986;2023-04-03T07:01:35;4.80;99.90
32612;DHT22;19030;49.478;8.986;2023-04-03T07:03:36;5.30;99.90
32612;DHT22;19030;49.478;8.986;2023-04-03T07:05:37;6.10;99.90
32612;DHT22;19030;49.478;8.986;2023-04-03T07:07:37;6.90;99.90
32612;DHT22;19030;49.478;8.986;2023-04-03T07:09:38;7.50;99.90
32612;DHT22;19030;49.478;8.986;2023-04-03T07:11:39;7.60;99.90
32612;DHT22;19030;49.478;8.986;2023-04-03T07:13:40;7.50;99.90
32612;DHT22;19030;49.478;8.986;2023-04-03T07:15:40;7.40;99.90
32612;DHT22;19030;49.478;8.986;2023-04-03T07:17:41;7.20;99.90
32612;DHT22;19030;49.478;8.986;2023-04-03T07:19:42;7.10;99.90
32612;DHT22;19030;49.478;8.986;2023-04-03T07:21:42;7.20;99.90
32612;DHT22;19030;49.478;8.986;2023-04-03T07:23:43;7.50;99.90
32612;DHT22;19030;49.478;8.986;2023-04-03T07:25:48;7.80;99.90
32612;DHT22;19030;49.478;8.986;2023-04-03T07:27:49;8.30;99.90
32612;DHT22;19030;49.478;8.986;2023-04-03T07:29:50;8.70;99.90
32612;DHT22;19030;49.478;8.986;2023-04-03T07:31:51;9.20;99.90
32612;DHT22;19030;49.478;8.986;2023-04-03T07:33:52;9.70;99.90
32612;DHT22;19030;49.478;8.986;2023-04-03T07:35:53;10.20;99.70
32612;DHT22;19030;49.478;8.986;2023-04-03T07:37:54;10.40;96.70
32612;DHT22;19030;49.478;8.986;2023-04-03T07:39:55;10.60;94.60
32612;DHT22;19030;49.478;8.986;2023-04-03T07:41:57;10.70;93.20
32612;DHT22;19030;49.478;8.986;2023-04-03T07:43:58;10.60;92.30
32612;DHT22;19030;49.478;8.986;2023-04-03T07:45:58;10.60;92.10
32612;DHT22;19030;49.478;8.986;2023-04-03T07:47:59;10.50;91.70
32612;DHT22;19030;49.478;8.986;2023-04-03T07:50:00;10.50;90.00
32612;DHT22;19030;49.478;8.986;2023-04-03T07:52:00;10.20;90.00
32612;DHT22;19030;49.478;8.986;2023-04-03T07:54:01;9.90;87.30
32612;DHT22;19030;49.478;8.986;2023-04-03T07:56:02;9.80;90.00
32612;DHT22;19030;49.478;8.986;2023-04-03T07:58:03;9.40;89.30
32612;DHT22;19030;49.478;8.986;2023-04-03T08:00:04;9.20;90.30
32612;DHT22;19030;49.478;8.986;2023-04-03T08:02:12;9.00;90.70
32612;DHT22;19030;49.478;8.986;2023-04-03T08:04:13;8.90;89.80
32612;DHT22;19030;49.478;8.986;2023-04-03T08:06:13;8.70;89.10
32612;DHT22;19030;49.478;8.986;2023-04-03T08:08:18;8.80;89.90
32612;DHT22;19030;49.478;8.986;2023-04-03T08:10:19;8.80;89.20
32612;DHT22;19030;49.478;8.986;2023-04-03T08:12:19;9.00;87.90
32612;DHT22;19030;49.478;8.986;2023-04-03T08:14:20;9.20;87.40
32612;DHT22;19030;49.478;8.986;2023-04-03T08:16:22;9.30;90.00
32612;DHT22;19030;49.478;8.986;2023-04-03T08:18:24;9.60;86.20
32612;DHT22;19030;49.478;8.986;2023-04-03T08:20:25;9.80;84.00
32612;DHT22;19030;49.478;8.986;2023-04-03T08:22:26;10.00;82.10
32612;DHT22;19030;49.478;8.986;2023-04-03T08:24:26;10.00;82.90
32612;DHT22;19030;49.478;8.986;2023-04-03T08:26:27;10.00;82.40
32612;DHT22;19030;49.478;8.986;2023-04-03T08:28:28;10.20;82.50
32612;DHT22;19030;49.478;8.986;2023-04-03T08:30:28;10.50;80.10
32612;DHT22;19030;49.478;8.986;2023-04-03T08:32:29;10.80;79.60
32612;DHT22;19030;49.478;8.986;2023-04-03T08:34:30;11.00;77.10
32612;DHT22;19030;49.478;8.986;2023-04-03T08:36:31;10.90;73.40
32612;DHT22;19030;49.478;8.986;2023-04-03T08:38:31;10.90;74.00
32612;DHT22;19030;49.478;8.986;2023-04-03T08:40:32;11.00;72.10
32612;DHT22;19030;49.478;8.986;2023-04-03T08:45:01;12.10;70.70
32612;DHT22;19030;49.478;8.986;2023-04-03T08:47:24;13.00;62.30
32612;DHT22;19030;49.478;8.986;2023-04-03T08:49:30;13.80;59.20
32612;DHT22;19030;49.478;8.986;2023-04-03T08:51:31;15.10;55.80
32612;DHT22;19030;49.478;8.986;2023-04-03T08:53:36;16.50;49.30
32612;DHT22;19030;49.478;8.986;2023-04-03T08:55:44;17.50;46.50
32612;DHT22;19030;49.478;8.986;2023-04-03T08:57:46;18.50;46.20
32612;DHT22;19030;49.478;8.986;2023-04-03T08:59:49;19.90;40.10
32612;DHT22;19030;49.478;8.986;2023-04-03T09:01:49;20.50;37.30
32612;DHT22;19030;49.478;8.986;2023-04-03T09:03:51;20.80;35.20
32612;DHT22;19030;49.478;8.986;2023-04-03T09:06:12;19.80;35.60
32612;DHT22;19030;49.478;8.986;2023-04-03T09:10:40;20.50;35.80
32612;DHT22;19030;49.478;8.986;2023-04-03T09:12:46;21.20;35.70
32612;DHT22;19030;49.478;8.986;2023-04-03T09:15:05;21.80;33.40
32612;DHT22;19030;49.478;8.986;2023-04-03T09:21:38;22.40;31.10
32612;DHT22;19030;49.478;8.986;2023-04-03T09:23:51;22.40;30.40
32612;DHT22;19030;49.478;8.986;2023-04-03T09:25:58;23.00;31.20
32612;DHT22;19030;49.478;8.986;2023-04-03T09:28:01;24.10;29.30
32612;DHT22;19030;49.478;8.986;2023-04-03T09:30:03;23.80;28.80
32612;DHT22;19030;49.478;8.986;2023-04-03T09:32:36;23.00;28.70
32612;DHT22;19030;49.478;8.986;2023-04-03T09:34:37;21.80;30.30
32612;DHT22;19030;49.478;8.986;2023-04-03T09:36:40;19.90;31.00
32612;DHT22;19030;49.478;8.986;2023-04-03T09:38:40;18.20;34.30
32612;DHT22;19030;49.478;8.986;2023-04-03T09:40:44;18.80;35.30
32612;DHT22;19030;49.478;8.986;2023-04-03T09:42:46;20.20;34.00
32612;DHT22;19030;49.478;8.986;2023-04-03T09:44:58;19.90;32.50
32612;DHT22;19030;49.478;8.986;2023-04-03T09:46:59;20.00;33.50
32612;DHT22;19030;49.478;8.986;2023-04-03T09:49:18;20.00;34.50
32612;DHT22;19030;49.478;8.986;2023-04-03T09:51:25;19.00;34.70
32612;DHT22;19030;49.478;8.986;2023-04-03T09:53:33;17.70;36.80
32612;DHT22;19030;49.478;8.986;2023-04-03T09:55:43;16.50;38.90
32612;DHT22;19030;49.478;8.986;2023-04-03T09:57:47;15.10;41.30
32612;DHT22;19030;49.478;8.986;2023-04-03T09:59:59;13.80;42.70
32612;DHT22;19030;49.478;8.986;2023-04-03T10:02:22;12.80;44.60
32612;DHT22;19030;49.478;8.986;2023-04-03T10:04:24;12.10;46.40
32612;DHT22;19030;49.478;8.986;2023-04-03T10:06:25;11.60;47.60
32612;DHT22;19030;49.478;8.986;2023-04-03T10:08:29;11.40;48.40
32612;DHT22;19030;49.478;8.986;2023-04-03T10:10:30;11.10;49.60
32612;DHT22;19030;49.478;8.986;2023-04-03T10:12:30;10.90;50.50
32612;DHT22;19030;49.478;8.986;2023-04-03T10:14:39;10.70;50.70
32612;DHT22;19030;49.478;8.986;2023-04-03T10:16:47;10.50;52.00
32612;DHT22;19030;49.478;8.986;2023-04-03T10:19:19;10.40;52.20
32612;DHT22;19030;49.478;8.986;2023-04-03T10:21:36;10.60;52.80
32612;DHT22;19030;49.478;8.986;2023-04-03T10:23:45;10.80;51.50
32612;DHT22;19030;49.478;8.986;2023-04-03T10:26:00;10.70;51.70
32612;DHT22;19030;49.478;8.986;2023-04-03T10:28:23;10.90;52.50
32612;DHT22;19030;49.478;8.986;2023-04-03T10:35:15;9.90;52.20
32612;DHT22;19030;49.478;8.986;2023-04-03T10:37:27;9.50;52.60
32612;DHT22;19030;49.478;8.986;2023-04-03T10:40:01;9.10;53.90
32612;DHT22;19030;49.478;8.986;2023-04-03T10:42:25;9.00;54.40
32612;DHT22;19030;49.478;8.986;2023-04-03T10:44:52;9.10;55.50
32612;DHT22;19030;49.478;8.986;2023-04-03T10:49:25;9.20;53.10
32612;DHT22;19030;49.478;8.986;2023-04-03T10:51:56;9.30;53.50
32612;DHT22;19030;49.478;8.986;2023-04-03T10:54:12;9.10;55.80
32612;DHT22;19030;49.478;8.986;2023-04-03T10:58:26;8.80;57.20
32612;DHT22;19030;49.478;8.986;2023-04-03T11:00:50;8.70;56.60
32612;DHT22;19030;49.478;8.986;2023-04-03T11:02:58;8.70;57.50
32612;DHT22;19030;49.478;8.986;2023-04-03T11:05:04;8.80;57.60
32612;DHT22;19030;49.478;8.986;2023-04-03T11:07:22;8.90;56.90
32612;DHT22;19030;49.478;8.986;2023-04-03T11:09:30;9.20;57.30
32612;DHT22;19030;49.478;8.986;2023-04-03T11:11:34;9.40;57.20
32612;DHT22;19030;49.478;8.986;2023-04-03T11:13:43;9.50;57.90
32612;DHT22;19030;49.478;8.986;2023-04-03T11:15:46;9.60;56.70
32612;DHT22;19030;49.478;8.986;2023-04-03T11:18:04;9.50;56.10
32612;DHT22;19030;49.478;8.986;2023-04-03T11:20:18;9.40;55.80
32612;DHT22;19030;49.478;8.986;2023-04-03T11:22:32;9.40;56.10
32612;DHT22;19030;49.478;8.986;2023-04-03T11:24:36;9.00;55.80
32612;DHT22;19030;49.478;8.986;2023-04-03T11:26:40;8.80;56.70
32612;DHT22;19030;49.478;8.986;2023-04-03T11:28:42;8.80;56.80
32612;DHT22;19030;49.478;8.986;2023-04-03T11:32:58;9.30;56.80
32612;DHT22;19030;49.478;8.986;2023-04-03T11:35:02;9.60;57.10
32612;DHT22;19030;49.478;8.986;2023-04-03T11:37:33;9.70;55.60
32612;DHT22;19030;49.478;8.986;2023-04-03T11:39:35;9.70;55.70
32612;DHT22;19030;49.478;8.986;2023-04-03T11:41:38;9.40;54.30
32612;DHT22;19030;49.478;8.986;2023-04-03T11:43:59;9.30;54.70
32612;DHT22;19030;49.478;8.986;2023-04-03T11:46:03;9.20;55.70
32612;DHT22;19030;49.478;8.986;2023-04-03T11:50:45;9.90;55.00
32612;DHT22;19030;49.478;8.986;2023-04-03T11:54:49;10.80;53.40
32612;DHT22;19030;49.478;8.986;2023-04-03T11:56:50;11.00;52.70
32612;DHT22;19030;49.478;8.986;2023-04-03T12:01:11;11.00;51.60
32612;DHT22;19030;49.478;8.986;2023-04-03T12:05:42;10.70;52.30
32612;DHT22;19030;49.478;8.986;2023-04-03T12:07:43;10.60;52.80
32612;DHT22;19030;49.478;8.986;2023-04-03T12:11:44;9.90;54.30
32612;DHT22;19030;49.478;8.986;2023-04-03T12:15:57;9.90;55.00
32612;DHT22;19030;49.478;8.986;2023-04-03T12:20:59;10.20;55.80
32612;DHT22;19030;49.478;8.986;2023-04-03T12:23:29;10.40;54.10
32612;DHT22;19030;49.478;8.986;2023-04-03T12:25:49;10.60;55.20
32612;DHT22;19030;49.478;8.986;2023-04-03T12:27:51;11.20;54.00
32612;DHT22;19030;49.478;8.986;2023-04-03T12:37:00;11.20;51.00
32612;DHT22;19030;49.478;8.986;2023-04-03T12:41:35;12.70;50.40
32612;DHT22;19030;49.478;8.986;2023-04-03T12:43:49;13.60;47.20
32612;DHT22;19030;49.478;8.986;2023-04-03T12:47:56;14.10;46.10
32612;DHT22;19030;49.478;8.986;2023-04-03T12:49:57;13.90;43.80
32612;DHT22;19030;49.478;8.986;2023-04-03T12:51:59;13.30;44.00
32612;DHT22;19030;49.478;8.986;2023-04-03T12:54:23;13.00;45.00
32612;DHT22;19030;49.478;8.986;2023-04-03T12:56:31;12.60;46.10
32612;DHT22;19030;49.478;8.986;2023-04-03T12:58:31;12.60;46.90
32612;DHT22;19030;49.478;8.986;2023-04-03T13:00:35;13.40;45.70
32612;DHT22;19030;49.478;8.986;2023-04-03T13:02:36;14.50;44.80
32612;DHT22;19030;49.478;8.986;2023-04-03T13:04:38;14.50;42.10
32612;DHT22;19030;49.478;8.986;2023-04-03T13:06:43;14.20;43.40
32612;DHT22;19030;49.478;8.986;2023-04-03T13:08:57;13.90;42.70
32612;DHT22;19030;49.478;8.986;2023-04-03T13:11:02;13.50;43.10
32612;DHT22;19030;49.478;8.986;2023-04-03T13:13:08;13.50;43.40
32612;DHT22;19030;49.478;8.986;2023-04-03T13:15:25;13.70;42.60
32612;DHT22;19030;49.478;8.986;2023-04-03T13:17:27;14.10;43.80
32612;DHT22;19030;49.478;8.986;2023-04-03T13:19:28;14.30;42.40
32612;DHT22;19030;49.478;8.986;2023-04-03T13:21:31;14.20;41.00
32612;DHT22;19030;49.478;8.986;2023-04-03T13:23:36;14.30;41.90
32612;DHT22;19030;49.478;8.986;2023-04-03T13:25:42;14.70;40.40
32612;DHT22;19030;49.478;8.986;2023-04-03T13:27:43;14.80;40.20
32612;DHT22;19030;49.478;8.986;2023-04-03T13:29:49;15.30;39.80
32612;DHT22;19030;49.478;8.986;2023-04-03T13:31:53;15.30;38.30
32612;DHT22;19030;49.478;8.986;2023-04-03T13:34:06;15.30;38.40
32612;DHT22;19030;49.478;8.986;2023-04-03T13:36:20;14.80;37.70
32612;DHT22;19030;49.478;8.986;2023-04-03T13:38:27;14.90;38.70
32612;DHT22;19030;49.478;8.986;2023-04-03T13:40:28;14.60;39.80
32612;DHT22;19030;49.478;8.986;2023-04-03T13:42:31;14.50;39.30
32612;DHT22;19030;49.478;8.986;2023-04-03T13:44:35;14.60;38.70
32612;DHT22;19030;49.478;8.986;2023-04-03T13:46:36;14.00;39.40
32612;DHT22;19030;49.478;8.986;2023-04-03T13:48:42;13.90;39.70
32612;DHT22;19030;49.478;8.986;2023-04-03T13:53:09;13.80;38.20
32612;DHT22;19030;49.478;8.986;2023-04-03T13:55:27;13.30;39.70
32612;DHT22;19030;49.478;8.986;2023-04-03T13:57:29;13.30;39.70
32612;DHT22;19030;49.478;8.986;2023-04-03T13:59:32;13.50;39.00
32612;DHT22;19030;49.478;8.986;2023-04-03T14:02:33;13.40;39.90
32612;DHT22;19030;49.478;8.986;2023-04-03T14:06:16;13.50;40.20
32612;DHT22;19030;49.478;8.986;2023-04-03T14:08:17;13.60;39.20
32612;DHT22;19030;49.478;8.986;2023-04-03T14:10:18;13.70;39.00